Faktúry za rok 2017

január február marec apríl máj jún júl august september október november december

Por. č. Dátum doručenia Názov a adresa dodávateľa IČO Popis plnenia Suma bez DPH Suma s DPH Č. OBJ
1304 2.10.17 Bc. Judita Magdičová 46931210 služby 320,00 320,00  
1305 3.10.17 Ekoposs - Haraj 11875321 daňové a ekonomické poradenstvo 398,34 478,01  
1306 3.10.17 Marius Pedersen 34115901 odpad 21,39 25,67  
1307 3.10.17 Marius Pedersen 34115901 odpad 48,55 58,26  
1308 3.10.17 NCH SLOVAKIA s.r.o. 34096043 chémia 409,68 491,62  
1309 3.10.17 NCH SLOVAKIA s.r.o. 34096043 chémia 1471,82 1766,19  
1310 3.10.17 Ulianko a Partners, s.r.o. 36856517 právne služby 1500,00 1800,00  
1311 3.10.17 VST enerineering 25264087 tlakové skúšky 12944,00 12944,00  
1312 3.10.17 VST enerineering 25264087 fľaša AP s ventilom + príslušenstvo 6468,00 6468,00  
1313 3.10.17 SPIN - SK s.r.o. 48118621 nájomné 66,39 79,67  
1314 3.10.17 G.P.S Zvolen spol. s r.o. 36639231 vypracovnaie mapy pozemkov 230,00 276,00  
1315 3.10.17 DONLY-PENZIÓN-FAJNNE s.r.o. 44078595 obedy 467,25 560,70  
1316 3.10.17 DONLY-PENZIÓN-FAJNNE s.r.o. 44078595 obedy 5,34 6,41  
1317 3.10.17 Ivan Škvareniak 40676846 oprava monitora 24,00 24,00  
1318 3.10.17 HYDAC s.r.o. 31578314 záloha na materiál 1574,16 1574,16  
1319 3.10.17 Verlag Dashofer 35730129 Revízia elektro - online knižnica 550,51 660,62  
1320 4.10.17 WOLCAT, s.r.o 50326392 prenájom centrály 16,67 20,00  
1321 4.10.17 Wienerberger 31418821 popolček 22786,72 27344,06  
1322 4.10.17 Wienerberger 31418821 popolček 639,04 766,85  
1323 4.10.17 ELBEK, s.r.o. 46646710 oprava vypínačov 5580,00 6696,00  
1324 4.10.17 ELBEK, s.r.o. 46646710 dianostika 16380,00 19656,00  
1325 4.10.17 D.K.C., s.r.o. 31571727 nafta 900,99 1081,19  
1326 4.10.17 KV- Security, s.r.o. 46019669 strážna služba 7387,20 8864,64  
1327 4.10.17 ABB, s.r.o. 31389325 servis 946,00 1135,20  
1328 4.10.17 Stredosl.vod.prev.spol.,a.s. 36644030 voda 327,87 393,44  
1329 4.10.17 Stredosl.vod.prev.spol.,a.s. 36644030 voda Pribinova 961,15 1153,38  
1330 4.10.17 Eurofins BEL/Novamann 31329209 analýza odpadových vôd 65,50 78,60  
1331 4.10.17 Narimex, spol. s.r.o.  679976 materiál 14,91 17,89  
1332 5.10.17 Elevátor servis, s.r.o 36045641 servis  - kľúče dodanie 120,00 144,00  
1333 5.10.17 STEFE Zvolen s.r.o. 31612300 služba 12500,00 15000,00  
1334 5.10.17 Orange Slovensko 35697270 služba 32,00 38,40  
1335 5.10.17 Orange Slovensko 35697270 služba 782,09 928,97  
1336 5.10.17 Linde Gas k.s 31373861 plyny 82,84 99,41  
1337 5.10.17 Auxilien, a.s., ČR 28217080 technická pomoc 27510,30 27510,30  
1338 5.10.17 excell, a.s. 35804629 poradenské služby 980,00 1176,00  
1339 5.10.17 Unicarback, s.r.o. 46643206 kosenie 1115,91 1339,09  
1340 5.10.17 Bučina DDD, spol. s.r.o. 36059323 vlečka 2474,80 2969,76  
1341 5.10.17 Bučina Zvolen, a.s. 36029815 teplo 9/2017 74793,81 89752,57  
1342 6.10.17 SSE, a.s. 36403008 elektrina 4288,60 5146,32  
1343 6.10.17 ProCare, a.s. 35890568 PZS 9/2017 637,05 688,01  
1344 6.10.17 SOMI Systems, a.s. 36041432 aktualizácia programu 209,00 250,80  
1345 6.10.17 ŽS Cargo Slovakia a.s. 35914921 vlečka 3759,00 4510,80  
1346 6.10.17 REMOS Zvolen, s.r.o 36032506 odvodnenie parovodnej prípojky 3966,28 3966,28  
1347 6.10.17 PORADCA s.r.o. 36371271 predplatné Práce a Mzdy 2018 49,17 59,00  
1348 6.10.17 Bormis s.r.o. 36747378 pracovné oblečenie 369,08 442,90  
1349 6.10.17 W.R.V., s.r.o. 4620096 materiál 82,00 98,40  
1350 6.10.17 Verlag Dashofer 35730129 záloha HR v praxi online 391,76 391,76  
1351 6.10.17 Beličková, s.r.o. 45902836 materiál 30,18 36,22  
1352 9.10.17 Power System Managment 43833900 Posúdenie spolupráce generátorov 7150,00 8580,00  
1353 9.10.17 Sloving, spol. s.r.o. 17321069 práce 16301,12 16301,12  
1354 9.10.17 OMV, s.r.o. 604381 tankovanie 565,97 679,15  
1355 9.10.17 Fittich s.r.o. 46849891 kontrola EPS 50,00 60,00  
1356 9.10.17 Duslo, a.s. 35826487 utesnenie netesnosti 2075,00 2490,00  
1357 9.10.17 Slovak Telekom, a.s. 35763469 tel.hovory, internet 288,94 346,73  
1358 9.10.17 TERRASTROJ spol. s.r.o. 643581 JD držiak 44,89 53,87  
1359 9.10.17 Weby group 36046884 štvrťrok predlplatné 38,84 46,61  
1360 9.10.17 SSE - Distribúcia, a.s. 36442151 IT prenájom 570,96 685,15  
1361 9.10.17 Linde Gas k.s 31373861 nájomné 242,90 291,48  
1362 9.10.17 Stredosl.vod.prev.spol.,a.s. 36644030 povrchová voda 5797,90 6957,48  
1363 9.10.17 NCH SLOVAKIA s.r.o. 34096043 materiál 228,48 274,18  
1364 9.10.17 EBA, s.r.o. 31376134 likvidácia olejov 287,70 345,24  
1365 9.10.17 GAMO-INSTAL, s.r.o. 36627429 OP plynových horákov 420,00 420,00  
1366 9.10.17 TECH-LIT SK s.r.o. 50006193 super čistič 425,00 510,00  
1367 9.10.17 OKTE, a.s. 45687862 prevádzkovanie systému 30603,09 36723,71  
1368 9.10.17 OKTE, a.s. 45687862 systémové služby 8232,81 9879,37  
1369 10.10.17 Globál, s.r.o. 31580637 oprava 300,00 300,00  
1370 10.10.17 A-Z lokomat s.r.o. 31617034 DRŠ 251225,95 301471,14  
1371 10.10.17 SAP Slovensko, s.r.o. 35737328 licencia 3259,29 3911,15  
1372 10.10.17 NCH SLOVAKIA s.r.o. 34096043 chémia 4192,90 5031,48  
1373 11.10.17 OKTE, a.s. 45687862 odchýlka 1897,49 2276,99  
1374 11.10.17 MaR Trade, s.r.o 36437743 prevodník 463,70 556,44  
1375 11.10.17 PRAKTIKPUMPY SK s.r.o. 50638629 hadica 27,00 32,40  
1376 11.10.17 Brutto, s.r.o. 44533870 oprava váhy - vrátená FA 525,60 525,60  
1377 11.10.17 Elgas , s.r.o 3634242 plyn 30136,00 36163,20  
1378 11.10.17 D.K.C., s.r.o. 31571727 nafta 918,00 1101,60  
1379 11.10.17 Ľubomír Nemec 43696261 nesprávna FA - opravená č. 1454 5177,72 5177,72  
1380 12.10.17 MERTECH spol. s r.o. 31629024 kontrola + ND 581,00 697,20  
1381 12.10.17 MERTECH spol. s r.o. 31629024 paušál 390,00 468,00  
1382 12.10.17 Linde Gas k.s 31373861 plyny 109,76 131,71  
1383 12.10.17 SSE - Distribúcia, a.s. 36442151 preddavok 673,00 673,00  
1384 12.10.17 SSE - Distribúcia, a.s. 36442151 preddavok 231,00 231,00  
1385 12.10.17 SSE - Distribúcia, a.s. 36442151 súhrnná VN 564,58 677,50  
1386 12.10.17 SSE - Distribúcia, a.s. 36442151 súhrnná VVN 1799,32 2159,18  
1387 12.10.17 SSE - Distribúcia, a.s. 36442151 VN 13082,31 15698,77  
1388 12.10.17 SARO Slovakia s.r.o 48136689 uhlie - vrátená FA 436735,66 524082,79  
1389 12.10.17 OKTE, a.s. 45687862 zúčtovanie odchýlky 34,01 40,81  
1390 12.10.17 Michalek Vlad. Pohostinská činnosť 37059831 obedy 432,00 518,40  
1391 12.10.17 SSE - Distribúcia, a.s. 36442151 VVN 11776,80 14132,16  
1392 12.10.17 TEMPO KONDELA, s.r.o. 36409154 regál RIOMA 88,75 106,50  
1393 12.10.17 National pen prom. products limited 474116 perá s logom 132,49 132,49  
1394 13.10.17 Plast -Trend, s.r.o. 36619124 plastové okná 212,42 212,42  
1395 13.10.17 Plast -Trend, s.r.o. 36619124 plastové okná 3184,13 3184,13  
1396 13.10.17 Chéque Déjeuner 31396674 lístky 3,50€ 5616,56 5627,57  
1397 13.10.17 Chéque Déjeuner 31396674 lístky 1,75€ 1579,99 1583,09  
1398 13.10.17 Železnice SR 31364501 elektrina 8,35 10,02  
1399 13.10.17 SEPS, a.s. 35829141 zmluvná pokuta 593,56 593,56  
1400 13.10.17 Marius Pedersen 34115901 prenájom kontajnera 43,50 52,20  
1401 13.10.17 ŽS Cargo Slovakia a.s. 35914921 vlečka 1841,00 2209,20  
1402 13.10.17 Energodata, spol. s.r.o. 30223806 tech. Podpora 4423,78 5308,54  
1403 13.10.17 ENERGOTEL, a.s. 35785217 internet 400,00 480,00  
1404 16.10.17 BRONSWERK 14867125 hnacie trysky - zostava 10980,00 10980,00  
1405 16.10.17 REMOS Zvolen, s.r.o 36032506 práce na HV 3494,91 3494,91  
1406 16.10.17 Duslo, a.s. 35826487 DBS služby Furmanite -2075,00 -2490,00  
1407 16.10.17 Duslo, a.s. 35826487 utesnenie netesnosti 2075,00 2075,00  
1408 16.10.17 Elevátor servis, s.r.o 36045641 servis 94,00 94,00  
1409 16.10.17 Ján Mičiak 44637934 overovanie meračov tepla 34,60 41,52  
1410 16.10.17 Elevátor servis, s.r.o 36045641 skúšky výťahov 505,00 606,00  
1411 16.10.17 VANKA elektro s.r.o. 47188863 elektromateriál 287,97 345,56  
1412 16.10.17 Hansa Flex Hydraulik, s.r.o. 31642608 oprava HA 1250,39 1500,47  
1413 16.10.17 MERCK, spol. s.r.o. 18626971 materiál 63,67 63,67  
1414 16.10.17 EUROP-AUTOSKLO ZVOLEN, s.r.o. 47924179 čelné sklo 140,00 168,00  
1415 16.10.17 SARO Slovakia s.r.o 48136689 uhlie  215561,57 258673,88  
1416 16.10.17 SARO Slovakia s.r.o 48136689 uhlie 221174,09 265408,91  
1417 16.10.17 Auxilien a.s., Žilina 45601437 Zmluva o PPS 2631,48 3157,78  
1418 17.10.17 Sloving, spol. s.r.o. 17321069 kotol K 6 - prehliadka 1167,44 1400,93  
1419 17.10.17 D.K.C., s.r.o. 31571727 nafta 901,00 1081,20  
1420 17.10.17 Slovenský vodohosp. Pod, š.p.. 3602204703 hydroenergetický potenciál 547,87 657,44  
1421 17.10.17 TECHNIK-stavba a bývanie s.r.o. 47531711 batéria drezová + ND 111,50 133,80  
1422 18.10.17 JF, spol. s.r.o 36620009 opakované školenie 75,00 90,00  
1423 18.10.17 Viera Kučerová - KOMA 45913471 deratizácia 1183,00 1183,00  
1424 18.10.17 Energodata, spol. s.r.o. 30223806 nájomné 11401,26 13681,51  
1425 18.10.17 OSKO.a,s. 36044717 elektromateriál 128,93 154,72  
1426 18.10.17 1.Beami, s.r.o. 35680865 záloha za stoličku 145,96 145,96  
1427 19.10.17 QSCert, spol. s.r.o. 36040631 personálny audit 19500,00 23400,00  
1428 19.10.17 Michal Machay - DESIGN PLUS 41190904 návrh a tlač výročnej správy 2016 1125,00 1350,00  
1429 19.10.17 BVH. Spol, s.r.o. 35674148 periodické prehliadky 556,40 667,68  
1430 20.10.17 Scandi s.r.o. 36642983 materiál 106,60 127,92  
1431 20.10.17 TeSe, s.r.o. 47524006 oprava nádrže 2522,00 2522,00  
1432 23.10.17 HYDAC  s.r.o. 31578314 filtračná vložka 1311,80 1574,16  
1433 23.10.17 Fortischem a.s. 46693874 hydroxid 15207,50 18249,00  
1434 23.10.17 OMV, s.r.o. 604381 tankovanie 463,36 553,55  
1435 23.10.17 IS IZOL syystem 36317365 izolácia 180,72 216,86  
1436 23.10.17 ŽS Cargo Slovakia a.s. 35914921 vlečka 1841,00 2209,20  
1437 23.10.17 Čas Energo Plus, s.r.o. 36034207 DRŠ 59002,04 70802,45  
1438 23.10.17 Vladimír Boroš 17259541 zdrojový blok 200,00 240,00  
1439 23.10.17 A-Z lokomat s.r.o. 31617034 DRŠ 174382,48 209258,98  
1440 23.10.17 Verlag Dashofer 35730129 HR v praxi profi plus 326,47 391,76  
1441 24.10.17 Chiva SK , spol s.r.o. 46472762 materiál 197,93 237,52  
1442 24.10.17 ŽS Cargo Slovakia a.s. 35914921 vlečka 5600,00 6720,00  
1443 25.10.17 Advokátska kancelária Pacalaj, Palla 36857548 právne analýzy 37500,00 45000,00  
1444 25.10.17 D.K.C., s.r.o. 31571727 nafta 900,99 1081,19  
1445 25.10.17 Karel Holoubek - Trade Group 25060996 uhlie 316342,04 316342,04  
1446 25.10.17 SARO Slovakia s.r.o 48136689 uhlie - vrátená FA 108447,82 130137,39  
1447 26.10.17 Ľubomír Neviďánsky - Kovozvar 41179773 periodické preskúšanie zváračov 1675,00 1675,00  
1448 26.10.17 Linde Gas k.s 31373861 plyny 44,43 53,32  
1449 26.10.17 Internet Mall Slovakia, s.r.o. 35950226 elektrický varič 15,67 18,80  
1450 27.10.17 Beata Dolincova - 34625364 angličtina 195,00 195,00  
1451 27.10.17 AutoKODUS s.r.o. 36530751 servis + oprava 743,90 892,68  
1452 27.10.17 PPA inžiniering, s.r.o. 31376045 mes. údržba 1190,00 1428,00  
1453 27.10.17 ŽS Cargo Slovakia a.s. 35914921 vlečka 1508,00 1809,60  
1454 27.10.17 Ľubomír Nemec 43696261 čistenie priepustu 5177,72 5177,72  
1455 27.10.17 B2B Partner s.r.o. 44413467 rohože 82,00 98,40  
1456 30.10.17 Vertis Environmental Finance 13748890 emisie 146000,00 146000,00  
1457 30.10.17 D.K.C., s.r.o. 35680865 stolička Calypso 121,63 145,96  
1458 30.10.17 api-Additives for Paper Industry 37077809 materiál 4380,00 4380,00  
1459 30.10.17 Verlag Dashofer 35730129 predplatné DPH - aktuálne 157,00 188,40  
1460 30.10.17 1.DMS 36021091 práce autožeriavom 178,80 214,56  
1461 30.10.17 NCH SLOVAKIA s.r.o. 34096043 servis 496,25 595,50  
1462 30.10.17 Stredosl.vod.prev.spol.,a.s. 36644030 voda 354,30 425,16  
1463 30.10.17 TECHNIK-stavba a bývanie s.r.o. 47531711 materiál 12,00 14,40  
1464 30.10.17 Beličková, s.r.o. 45902836 materiál 276,15 331,38  
1465 30.10.17 D.K.C., s.r.o. 31571727 nafta 1826,98 2192,38  
1466 31.10.17 DONLY-PENZIÓN-FAJNNE s.r.o. 44078595 obedy 483,27 579,92  
1467 31.10.17 DONLY-PENZIÓN-FAJNNE s.r.o. 44078595 obedy 16,02 19,22  
1468 31.10.17 SARO Slovakia s.r.o 48136689 energetické uhlie 110283,75 132340,50